RJAN(METAR)
10/16 16:00
RJAN 160700Z 07011KT 9999 SCT021 BKN028 19/15 Q1021 RMK A3017=
戻る
トップページへ戻る
IMOC Co,.Ltd.